createdAt,value
2018-06-12T00:02:01.115Z,21.96
2018-06-12T00:04:33.102Z,21.92
2018-06-12T00:07:07.059Z,21.96
2018-06-12T00:09:39.114Z,21.95
2018-06-12T00:12:10.190Z,21.76
2018-06-12T00:14:41.223Z,21.65
2018-06-12T00:17:12.436Z,21.57
2018-06-12T00:19:42.916Z,21.48
2018-06-12T00:22:14.038Z,21.60
2018-06-12T00:24:47.921Z,21.58
2018-06-12T00:27:23.445Z,21.55
2018-06-12T00:29:54.140Z,21.42
2018-06-12T00:32:25.554Z,21.34
2018-06-12T00:34:55.865Z,21.09
2018-06-12T00:37:28.090Z,20.95
2018-06-12T00:39:59.332Z,21.02
2018-06-12T00:42:29.656Z,21.05
2018-06-12T00:45:00.583Z,20.91
2018-06-12T00:47:52.024Z,20.79
2018-06-12T00:50:24.306Z,20.67
2018-06-12T00:52:57.246Z,20.64
2018-06-12T00:55:27.676Z,20.57
2018-06-12T00:57:59.976Z,20.46
2018-06-12T01:00:30.325Z,20.50
2018-06-12T01:03:01.296Z,20.53
2018-06-12T01:05:31.845Z,20.46
2018-06-12T01:08:02.309Z,20.44
2018-06-12T01:10:32.625Z,20.52
2018-06-12T01:13:03.253Z,20.50
2018-06-12T01:15:38.236Z,20.42
2018-06-12T01:18:09.052Z,20.44
2018-06-12T01:20:40.404Z,20.39
2018-06-12T01:23:10.897Z,20.36
2018-06-12T01:25:41.432Z,20.21
2018-06-12T01:28:16.060Z,20.04
2018-06-12T01:30:47.500Z,20.07
2018-06-12T01:33:18.219Z,19.95
2018-06-12T01:36:00.529Z,19.78
2018-06-12T01:38:31.145Z,19.69
2018-06-12T01:41:01.733Z,19.64
2018-06-12T01:43:32.103Z,19.67
2018-06-12T01:46:02.338Z,19.63
2018-06-12T01:48:32.952Z,19.65
2018-06-12T01:51:04.485Z,19.71
2018-06-12T01:54:06.423Z,19.63
2018-06-12T01:56:37.988Z,19.64
2018-06-12T01:59:09.378Z,19.59
2018-06-12T02:01:40.047Z,19.50
2018-06-12T02:04:10.673Z,19.49
2018-06-12T02:06:42.624Z,19.41
2018-06-12T02:09:15.062Z,19.48
2018-06-12T02:11:45.759Z,19.42
2018-06-12T02:14:20.981Z,19.42
2018-06-12T02:16:53.511Z,19.50
2018-06-12T02:19:24.065Z,19.53
2018-06-12T02:21:55.153Z,19.41
2018-06-12T02:24:25.732Z,19.41
2018-06-12T02:26:56.163Z,19.49
2018-06-12T02:29:26.562Z,19.59
2018-06-12T02:31:57.773Z,19.52
2018-06-12T02:34:29.274Z,19.57
2018-06-12T02:36:59.606Z,19.29
2018-06-12T02:39:29.855Z,19.46
2018-06-12T02:42:01.175Z,19.39
2018-06-12T02:44:31.963Z,19.32
2018-06-12T02:47:02.324Z,19.32
2018-06-12T02:49:35.367Z,19.29
2018-06-12T02:52:06.927Z,19.23
2018-06-12T02:54:37.155Z,19.20
2018-06-12T02:57:08.607Z,19.22
2018-06-12T02:59:41.572Z,19.28
2018-06-12T03:02:14.860Z,19.23
2018-06-12T03:04:45.443Z,19.19
2018-06-12T03:10:19.920Z,19.06
2018-06-12T03:12:50.096Z,19.02
2018-06-12T03:15:20.685Z,19.00
2018-06-12T03:17:51.757Z,19.12
2018-06-12T03:20:31.656Z,19.06
2018-06-12T03:23:01.960Z,19.07
2018-06-12T03:25:32.238Z,19.01
2018-06-12T03:28:02.900Z,19.06
2018-06-12T03:30:33.639Z,19.07
2018-06-12T03:33:04.692Z,19.18
2018-06-12T03:35:40.205Z,19.14
2018-06-12T03:38:10.627Z,18.99
2018-06-12T03:40:54.579Z,18.90
2018-06-12T03:43:24.869Z,18.92
2018-06-12T03:45:55.460Z,18.95
2018-06-12T03:48:25.747Z,18.98
2018-06-12T03:50:56.935Z,18.99
2018-06-12T03:53:27.190Z,19.00
2018-06-12T03:55:57.409Z,18.97
2018-06-12T03:58:27.792Z,18.83
2018-06-12T04:00:59.000Z,18.86
2018-06-12T04:03:29.222Z,18.81
2018-06-12T04:05:59.537Z,18.83
2018-06-12T04:08:29.719Z,18.67
2018-06-12T04:11:00.936Z,18.78
2018-06-12T04:13:32.099Z,18.91
2018-06-12T04:16:02.831Z,18.96
2018-06-12T04:18:33.476Z,18.93
2018-06-12T04:21:04.024Z,18.84
2018-06-12T04:23:34.351Z,18.78
2018-06-12T04:26:05.195Z,18.73
2018-06-12T04:28:35.489Z,18.81
2018-06-12T04:31:05.773Z,18.87
2018-06-12T04:33:37.054Z,18.93
2018-06-12T04:36:07.640Z,18.93
2018-06-12T04:38:37.867Z,18.88
2018-06-12T04:41:08.637Z,18.80
2018-06-12T04:43:41.843Z,18.73
2018-06-12T04:46:12.806Z,18.78
2018-06-12T04:48:44.018Z,18.86
2018-06-12T04:51:16.195Z,18.55
2018-06-12T04:53:48.816Z,18.86
2018-06-12T04:56:21.213Z,18.91
2018-06-12T04:58:51.846Z,18.87
2018-06-12T05:01:22.399Z,18.78
2018-06-12T05:03:53.100Z,18.56
2018-06-12T05:06:23.329Z,18.84
2018-06-12T05:08:58.843Z,18.87
2018-06-12T05:11:29.372Z,18.88
2018-06-12T05:14:04.674Z,18.96
2018-06-12T05:16:36.233Z,18.98
2018-06-12T05:19:07.048Z,18.98
2018-06-12T05:21:39.354Z,19.06
2018-06-12T05:24:09.579Z,19.22
2018-06-12T05:26:42.101Z,19.23
2018-06-12T05:29:12.581Z,19.26
2018-06-12T05:31:43.015Z,19.32
2018-06-12T05:34:13.315Z,19.27
2018-06-12T05:36:45.025Z,19.14
2018-06-12T05:39:15.392Z,19.28
2018-06-12T05:41:48.773Z,19.38
2018-06-12T05:44:19.777Z,19.53
2018-06-12T05:46:52.298Z,19.47
2018-06-12T05:49:29.259Z,19.63
2018-06-12T05:52:01.863Z,19.57
2018-06-12T05:54:32.516Z,19.61
2018-06-12T05:57:07.070Z,19.66
2018-06-12T05:59:38.864Z,19.64
2018-06-12T06:02:09.101Z,19.53
2018-06-12T06:04:41.103Z,19.58
2018-06-12T06:07:11.397Z,19.53
2018-06-12T06:09:45.554Z,19.55
2018-06-12T06:12:21.454Z,19.67
2018-06-12T06:14:52.478Z,19.74
2018-06-12T06:17:24.055Z,19.71
2018-06-12T06:19:55.564Z,19.58
2018-06-12T06:22:25.949Z,19.68
2018-06-12T06:25:07.061Z,19.76
2018-06-12T06:27:37.536Z,19.72
2018-06-12T06:30:16.403Z,19.76
2018-06-12T06:32:49.445Z,19.80
2018-06-12T06:35:44.171Z,19.66
2018-06-12T06:38:16.764Z,19.48
2018-06-12T06:40:48.451Z,19.53
2018-06-12T06:43:21.703Z,19.52
2018-06-12T06:45:53.783Z,19.59
2018-06-12T06:48:24.910Z,19.51
2018-06-12T06:50:57.287Z,19.38
2018-06-12T06:53:30.361Z,19.51
2018-06-12T06:56:05.224Z,19.70
2018-06-12T06:58:37.137Z,19.63
2018-06-12T07:01:08.261Z,19.63
2018-06-12T07:03:39.870Z,19.71
2018-06-12T07:06:11.433Z,19.60
2018-06-12T07:08:43.252Z,19.57
2018-06-12T07:11:15.400Z,19.72
2018-06-12T07:13:46.499Z,19.68
2018-06-12T07:16:17.862Z,19.60
2018-06-12T07:18:48.334Z,19.68
2018-06-12T07:21:25.587Z,19.63
2018-06-12T07:24:04.539Z,19.71
2018-06-12T07:26:35.090Z,19.70
2018-06-12T07:29:09.594Z,19.67
2018-06-12T07:31:46.891Z,19.75
2018-06-12T07:34:17.624Z,19.80
2018-06-12T07:36:48.899Z,19.77
2018-06-12T07:39:20.959Z,19.74
2018-06-12T07:41:52.653Z,20.00
2018-06-12T07:44:25.656Z,20.14
2018-06-12T07:46:59.484Z,20.45
2018-06-12T07:49:30.648Z,20.81
2018-06-12T07:52:03.385Z,20.80
2018-06-12T07:54:41.619Z,20.75
2018-06-12T07:57:12.144Z,20.78
2018-06-12T07:59:43.576Z,21.03
2018-06-12T08:02:15.211Z,21.31
2018-06-12T08:04:45.545Z,21.51
2018-06-12T08:07:16.134Z,21.68
2018-06-12T08:09:48.133Z,21.64
2018-06-12T08:12:28.096Z,21.56
2018-06-12T08:15:00.647Z,21.91
2018-06-12T08:17:38.410Z,22.04
2018-06-12T08:20:14.505Z,22.36
2018-06-12T08:23:01.576Z,22.36
2018-06-12T08:25:34.538Z,22.39
2018-06-12T08:28:11.574Z,22.53
2018-06-12T08:30:44.310Z,22.69
2018-06-12T08:33:15.275Z,22.61
2018-06-12T08:35:46.980Z,22.92
2018-06-12T08:38:18.198Z,22.50
2018-06-12T08:40:51.633Z,22.49
2018-06-12T08:43:23.564Z,22.06
2018-06-12T08:45:56.647Z,21.85
2018-06-12T08:48:27.697Z,21.95
2018-06-12T08:50:59.669Z,22.17
2018-06-12T08:53:31.313Z,22.26
2018-06-12T08:56:03.094Z,22.57
2018-06-12T08:58:34.738Z,22.65
2018-06-12T09:01:10.479Z,22.70
2018-06-12T09:03:43.518Z,22.91
2018-06-12T09:06:14.052Z,22.91
2018-06-12T09:08:45.311Z,22.93
2018-06-12T09:11:18.747Z,22.94
2018-06-12T09:13:49.237Z,22.70
2018-06-12T09:16:20.260Z,22.59
2018-06-12T09:18:51.348Z,22.72
2018-06-12T09:21:27.307Z,23.04
2018-06-12T09:24:02.292Z,22.89
2018-06-12T09:27:00.981Z,22.71
2018-06-12T09:29:42.435Z,22.71
2018-06-12T09:32:26.592Z,22.79
2018-06-12T09:34:58.849Z,22.74
2018-06-12T09:37:35.618Z,22.71
2018-06-12T09:40:06.238Z,23.03
2018-06-12T09:43:00.397Z,22.96
2018-06-12T09:45:32.627Z,23.00
2018-06-12T09:48:15.724Z,22.87
2018-06-12T09:50:52.584Z,22.82
2018-06-12T09:53:28.645Z,22.87
2018-06-12T09:56:01.686Z,23.11
2018-06-12T09:58:33.634Z,23.35
2018-06-12T10:01:09.866Z,23.32
2018-06-12T10:04:14.395Z,23.35
2018-06-12T10:06:45.581Z,23.64
2018-06-12T10:09:21.486Z,23.93
2018-06-12T10:11:55.393Z,24.29
2018-06-12T10:14:27.125Z,24.27
2018-06-12T10:17:30.363Z,24.25
2018-06-12T10:20:02.813Z,24.78
2018-06-12T10:22:49.092Z,24.47
2018-06-12T10:25:22.687Z,24.36
2018-06-12T10:27:54.609Z,24.24
2018-06-12T10:30:25.194Z,24.05
2018-06-12T10:32:56.902Z,23.88
2018-06-12T10:35:34.754Z,24.02
2018-06-12T10:40:54.523Z,23.67
2018-06-12T10:43:26.009Z,24.22
2018-06-12T10:45:57.631Z,24.00
2018-06-12T10:48:32.394Z,23.91
2018-06-12T10:51:07.448Z,23.96
2018-06-12T10:53:40.820Z,23.88
2018-06-12T10:56:16.042Z,23.66
2018-06-12T10:58:50.449Z,23.36
2018-06-12T11:01:26.744Z,23.42
2018-06-12T11:04:00.870Z,23.49
2018-06-12T11:06:38.139Z,23.70
2018-06-12T11:09:11.641Z,23.65
2018-06-12T11:11:44.242Z,23.42
2018-06-12T11:14:29.519Z,23.45
2018-06-12T11:17:16.234Z,23.42
2018-06-12T11:19:48.568Z,23.48
2018-06-12T11:22:22.410Z,23.57
2018-06-12T11:25:07.635Z,23.62
2018-06-12T11:27:42.595Z,23.60
2018-06-12T11:30:18.847Z,23.70
2018-06-12T11:32:50.478Z,23.59
2018-06-12T11:35:26.213Z,23.70
2018-06-12T11:37:58.564Z,24.04
2018-06-12T11:40:42.692Z,24.35
2018-06-12T11:43:27.671Z,24.45
2018-06-12T11:45:58.393Z,24.89
2018-06-12T11:48:28.957Z,25.27
2018-06-12T11:51:00.896Z,25.18
2018-06-12T11:53:32.225Z,25.12
2018-06-12T11:56:03.374Z,25.06
2018-06-12T11:58:34.995Z,25.10
2018-06-12T12:01:06.636Z,24.95
2018-06-12T12:03:37.958Z,24.85
2018-06-12T12:06:11.882Z,24.62
2018-06-12T12:08:45.359Z,24.23
2018-06-12T12:11:18.582Z,24.11
2018-06-12T12:13:53.360Z,23.69
2018-06-12T12:16:24.441Z,23.49
2018-06-12T12:18:54.728Z,23.52
2018-06-12T12:21:32.548Z,23.58
2018-06-12T12:24:18.446Z,23.46
2018-06-12T12:26:50.688Z,23.33
2018-06-12T12:29:27.560Z,23.34
2018-06-12T12:32:03.237Z,23.47
2018-06-12T12:34:34.489Z,23.52
2018-06-12T12:37:07.431Z,23.17
2018-06-12T12:39:40.478Z,23.17
2018-06-12T12:42:13.885Z,23.13
2018-06-12T12:44:51.026Z,22.98
2018-06-12T12:47:24.033Z,22.97
2018-06-12T12:49:59.562Z,23.09
2018-06-12T12:52:32.001Z,23.07
2018-06-12T12:55:05.672Z,23.13
2018-06-12T12:57:54.343Z,23.25
2018-06-12T13:00:25.430Z,23.26
2018-06-12T13:02:58.423Z,23.19
2018-06-12T13:05:29.570Z,23.19
2018-06-12T13:08:01.511Z,23.26
2018-06-12T13:10:35.341Z,23.39
2018-06-12T13:13:10.287Z,23.16
2018-06-12T13:15:46.070Z,22.92
2018-06-12T13:18:20.382Z,22.94
2018-06-12T13:20:55.030Z,22.71
2018-06-12T13:23:31.946Z,22.57
2018-06-12T13:26:18.491Z,22.46
2018-06-12T13:31:54.499Z,22.45
2018-06-12T13:34:46.532Z,22.37
2018-06-12T13:37:18.418Z,22.37
2018-06-12T13:39:51.461Z,22.28
2018-06-12T13:42:27.179Z,22.06
2018-06-12T13:45:18.830Z,21.86
2018-06-12T13:48:01.380Z,21.56
2018-06-12T13:50:34.979Z,21.51
2018-06-12T13:53:08.472Z,21.38
2018-06-12T13:55:55.338Z,21.54
2018-06-12T13:58:27.134Z,21.56
2018-06-12T14:01:00.416Z,21.60
2018-06-12T14:03:32.241Z,21.56
2018-06-12T14:06:05.326Z,21.29
2018-06-12T14:08:37.364Z,21.22
2018-06-12T14:11:09.303Z,21.41
2018-06-12T14:13:43.147Z,21.38
2018-06-12T14:16:30.105Z,21.16
2018-06-12T14:19:00.433Z,20.99
2018-06-12T14:21:33.364Z,21.12
2018-06-12T14:24:10.889Z,21.31
2018-06-12T14:26:44.767Z,21.31
2018-06-12T14:29:18.681Z,21.17
2018-06-12T14:31:51.883Z,20.92
2018-06-12T14:34:24.295Z,20.68
2018-06-12T14:36:57.424Z,20.74
2018-06-12T14:39:29.596Z,20.74
2018-06-12T14:42:05.439Z,20.51
2018-06-12T14:44:37.818Z,20.42
2018-06-12T14:47:22.743Z,20.40
2018-06-12T14:49:56.554Z,20.20
2018-06-12T14:52:44.149Z,20.14
2018-06-12T14:55:24.627Z,20.09
2018-06-12T14:57:56.717Z,20.07
2018-06-12T15:00:28.213Z,20.12
2018-06-12T15:03:07.433Z,20.09
2018-06-12T15:05:42.514Z,19.96
2018-06-12T15:08:18.976Z,20.03
2018-06-12T15:10:55.892Z,20.11
2018-06-12T15:13:37.240Z,20.26
2018-06-12T15:16:15.669Z,20.41
2018-06-12T15:18:48.418Z,20.53
2018-06-12T15:21:20.511Z,20.51
2018-06-12T15:26:24.229Z,20.65
2018-06-12T15:29:01.939Z,20.78
2018-06-12T15:31:42.947Z,20.93
2018-06-12T15:34:29.059Z,21.10
2018-06-12T15:37:22.320Z,21.23
2018-06-12T15:42:35.720Z,21.47
2018-06-12T15:45:16.790Z,21.55
2018-06-12T15:47:48.776Z,21.36
2018-06-12T15:50:28.831Z,21.38
2018-06-12T15:53:05.253Z,21.39
2018-06-12T15:55:35.979Z,21.40
2018-06-12T15:58:08.041Z,21.43
2018-06-12T16:00:44.821Z,21.60
2018-06-12T16:03:25.387Z,21.65
2018-06-12T16:06:04.631Z,21.72
2018-06-12T16:08:41.583Z,21.60
2018-06-12T16:14:13.275Z,21.61
2018-06-12T16:16:46.693Z,21.54
2018-06-12T16:19:18.502Z,21.76
2018-06-12T16:21:48.967Z,21.84
2018-06-12T16:24:37.851Z,21.76
2018-06-12T16:27:15.495Z,21.87
2018-06-12T16:29:48.518Z,21.81
2018-06-12T16:32:19.937Z,21.84
2018-06-12T16:34:52.541Z,21.92
2018-06-12T16:37:24.636Z,22.02
2018-06-12T16:39:58.891Z,22.24
2018-06-12T16:42:30.889Z,22.52
2018-06-12T16:45:06.229Z,22.53
2018-06-12T16:47:39.506Z,21.76
2018-06-12T16:50:16.324Z,22.03
2018-06-12T16:52:54.092Z,21.68
2018-06-12T16:55:28.153Z,21.54
2018-06-12T16:58:01.550Z,21.61
2018-06-12T17:00:32.349Z,22.00
2018-06-12T17:03:04.835Z,22.18
2018-06-12T17:05:57.036Z,22.32
2018-06-12T17:08:36.216Z,22.42
2018-06-12T17:11:16.430Z,22.33
2018-06-12T17:13:50.837Z,20.42
2018-06-12T17:16:30.918Z,22.27
2018-06-12T17:19:11.430Z,22.15
2018-06-12T17:21:48.071Z,22.23
2018-06-12T17:24:23.725Z,22.22
2018-06-12T17:26:57.545Z,22.13
2018-06-12T17:29:30.130Z,22.09
2018-06-12T17:34:49.853Z,21.89
2018-06-12T17:37:22.176Z,21.95
2018-06-12T17:39:52.777Z,21.96
2018-06-12T17:42:28.262Z,21.73
2018-06-12T17:46:44.290Z,21.59
2018-06-12T17:49:47.332Z,21.64
2018-06-12T17:52:21.771Z,21.48
2018-06-12T17:54:58.588Z,21.43
2018-06-12T17:57:33.824Z,21.60
2018-06-12T18:00:32.985Z,21.52
2018-06-12T18:03:04.856Z,21.58
2018-06-12T18:05:39.796Z,21.68
2018-06-12T18:08:34.220Z,21.64
2018-06-12T18:11:14.904Z,21.75
2018-06-12T18:13:53.477Z,21.61
2018-06-12T18:16:32.262Z,21.52
2018-06-12T18:19:22.493Z,21.53
2018-06-12T18:21:55.354Z,21.52
2018-06-12T18:24:30.035Z,21.42
2018-06-12T18:27:06.750Z,21.32
2018-06-12T18:29:40.528Z,21.22
2018-06-12T18:43:23.587Z,20.85
2018-06-12T18:46:09.924Z,20.86
2018-06-12T18:48:47.630Z,20.87
2018-06-12T18:51:30.557Z,20.99
2018-06-12T18:54:14.224Z,19.44
2018-06-12T18:56:53.295Z,20.82
2018-06-12T18:59:33.420Z,20.84
2018-06-12T19:04:57.983Z,20.78
2018-06-12T19:07:35.943Z,20.77
2018-06-12T19:10:16.699Z,20.77
2018-06-12T19:13:07.947Z,20.90
2018-06-12T19:15:57.391Z,20.87
2018-06-12T19:18:34.944Z,20.77
2018-06-12T19:21:13.396Z,20.63
2018-06-12T19:23:59.693Z,20.56
2018-06-12T19:26:52.654Z,20.58
2018-06-12T19:29:33.931Z,20.59
2018-06-12T19:32:09.145Z,20.66
2018-06-12T19:34:53.656Z,20.80
2018-06-12T19:37:28.604Z,20.56
2018-06-12T19:40:03.433Z,20.50
2018-06-12T19:42:41.461Z,20.49
2018-06-12T19:45:19.372Z,20.39
2018-06-12T19:47:51.837Z,20.45
2018-06-12T19:50:30.449Z,20.62
2018-06-12T19:53:02.988Z,20.60
2018-06-12T19:55:38.174Z,20.57
2018-06-12T19:58:12.656Z,20.51
2018-06-12T20:00:44.646Z,20.46
2018-06-12T20:03:22.676Z,20.43
2018-06-12T20:06:00.598Z,20.39
2018-06-12T20:11:17.940Z,20.20
2018-06-12T20:14:00.679Z,20.24
2018-06-12T20:16:35.701Z,20.25
2018-06-12T20:19:08.850Z,20.15
2018-06-12T20:21:49.203Z,20.10
2018-06-12T20:24:33.854Z,20.00
2018-06-12T20:27:08.654Z,19.94
2018-06-12T20:29:48.526Z,19.95
2018-06-12T20:32:27.705Z,19.97
2018-06-12T20:35:00.740Z,20.00
2018-06-12T20:37:33.855Z,20.07
2018-06-12T20:40:15.899Z,19.89
2018-06-12T20:42:50.309Z,19.87
2018-06-12T20:45:38.712Z,19.85
2018-06-12T20:48:19.736Z,19.82
2018-06-12T20:50:56.210Z,19.87
2018-06-12T20:53:31.221Z,19.88
2018-06-12T20:56:06.782Z,19.81
2018-06-12T20:58:39.859Z,19.87
2018-06-12T21:01:19.893Z,19.75
2018-06-12T21:04:02.076Z,19.65
2018-06-12T21:06:43.941Z,19.53
2018-06-12T21:09:27.636Z,19.56
2018-06-12T21:12:04.136Z,19.49
2018-06-12T21:14:40.092Z,19.42
2018-06-12T21:17:24.385Z,19.53
2018-06-12T21:20:02.393Z,19.51
2018-06-12T21:22:36.553Z,19.45
2018-06-12T21:25:19.022Z,19.47
2018-06-12T21:27:51.994Z,19.47
2018-06-12T21:30:23.837Z,19.37
2018-06-12T21:32:59.357Z,19.38
2018-06-12T21:35:43.359Z,19.34
2018-06-12T21:38:18.326Z,19.34
2018-06-12T21:40:53.512Z,19.38
2018-06-12T21:43:25.424Z,19.35
2018-06-12T21:46:01.299Z,19.26
2018-06-12T21:48:38.751Z,19.18
2018-06-12T21:51:12.795Z,19.13
2018-06-12T21:53:43.474Z,19.26
2018-06-12T21:56:21.478Z,19.32
2018-06-12T21:58:56.137Z,19.31
2018-06-12T22:01:28.250Z,19.26
2018-06-12T22:07:11.650Z,19.23
2018-06-12T22:09:51.006Z,19.25
2018-06-12T22:12:23.293Z,19.14
2018-06-12T22:14:59.645Z,19.13
2018-06-12T22:17:35.371Z,19.07
2018-06-12T22:20:09.891Z,18.99
2018-06-12T22:22:41.960Z,18.86
2018-06-12T22:25:22.817Z,18.77
2018-06-12T22:27:58.468Z,18.80
2018-06-12T22:30:32.459Z,18.87
2018-06-12T22:33:17.128Z,18.79
2018-06-12T22:35:50.469Z,18.66
2018-06-12T22:38:23.288Z,18.50
2018-06-12T22:40:58.348Z,18.55
2018-06-12T22:43:34.289Z,18.63
2018-06-12T22:46:10.509Z,18.58
2018-06-12T22:48:41.718Z,18.49
2018-06-12T22:51:21.105Z,18.43
2018-06-12T22:53:55.299Z,18.32
2018-06-12T22:56:27.839Z,18.32
2018-06-12T22:59:02.535Z,18.36
2018-06-12T23:01:40.517Z,18.37
2018-06-12T23:04:17.249Z,18.38
2018-06-12T23:06:59.901Z,18.33
2018-06-12T23:09:36.170Z,18.39
2018-06-12T23:12:12.062Z,18.49
2018-06-12T23:14:47.921Z,18.39
2018-06-12T23:17:19.269Z,18.47
2018-06-12T23:20:02.625Z,18.40
2018-06-12T23:22:36.963Z,18.27
2018-06-12T23:27:45.515Z,18.21
2018-06-12T23:30:19.450Z,18.24
2018-06-12T23:32:51.090Z,18.07
2018-06-12T23:35:23.585Z,18.04
2018-06-12T23:37:54.256Z,18.06
2018-06-12T23:40:26.082Z,17.96
2018-06-12T23:42:58.238Z,17.90
2018-06-12T23:45:31.013Z,17.88
2018-06-12T23:48:04.196Z,17.80
2018-06-12T23:50:39.421Z,17.80
2018-06-12T23:53:10.421Z,17.43
2018-06-12T23:55:42.338Z,17.77
2018-06-12T23:58:17.614Z,17.68
